Time;durP1;ratioP1;P1;durP2;ratioP2;P2;SDS_P1;SDS_P2;PMS_P1;PMS_P2;Temp;Humidity;BMP_temperature;BMP_pressure;BME280_temperature;BME280_humidity;BME280_pressure;Samples;Min_cycle;Max_cycle;Signal;HPM_P1;HPM_P2
2023/03/20 00:00:50;;;;;;;0.00;0.00;;;5.90;100.00;;;;;;5010468;28;20755;-70
2023/03/20 00:03:17;;;;;;;0.00;0.00;;;5.90;100.00;;;;;;5042069;28;20064;-71
2023/03/20 00:05:44;;;;;;;0.00;0.00;;;5.80;100.00;;;;;;5018138;28;20052;-71
2023/03/20 00:08:11;;;;;;;0.00;0.00;;;5.80;100.00;;;;;;5036809;28;20045;-71
2023/03/20 00:10:41;;;;;;;0.00;0.00;;;5.70;100.00;;;;;;5034353;28;20402;-71
2023/03/20 00:13:15;;;;;;;0.00;0.00;;;5.70;100.00;;;;;;5026292;28;20660;-71
2023/03/20 00:15:43;;;;;;;0.00;0.00;;;5.70;100.00;;;;;;5041994;28;20044;-71
2023/03/20 00:18:22;;;;;;;0.00;0.00;;;5.70;100.00;;;;;;5020689;28;20128;-71
2023/03/20 00:20:50;;;;;;;0.00;0.00;;;5.70;100.00;;;;;;5014856;28;20064;-71
2023/03/20 00:23:17;;;;;;;0.00;0.00;;;5.60;100.00;;;;;;5042804;28;20513;-71
2023/03/20 00:25:45;;;;;;;0.00;0.00;;;5.60;100.00;;;;;;5037641;28;20059;-71
2023/03/20 00:28:29;;;;;;;0.00;0.00;;;5.60;100.00;;;;;;5024985;28;20084;-72
2023/03/20 00:30:56;;;;;;;0.00;0.00;;;5.50;100.00;;;;;;5019514;28;20615;-71
2023/03/20 00:33:23;;;;;;;0.00;0.00;;;5.50;100.00;;;;;;5045213;28;20132;-71
2023/03/20 00:35:50;;;;;;;0.00;0.00;;;5.50;100.00;;;;;;5034691;28;20408;-71
2023/03/20 00:38:17;;;;;;;0.00;0.00;;;5.40;100.00;;;;;;5041517;28;20049;-72
2023/03/20 00:40:44;;;;;;;0.00;0.00;;;5.30;100.00;;;;;;5024108;28;20402;-71
2023/03/20 00:43:12;;;;;;;0.00;0.00;;;5.20;100.00;;;;;;5042723;28;20676;-71
2023/03/20 00:45:39;;;;;;;0.00;0.00;;;5.20;100.00;;;;;;5047011;28;20440;-72
2023/03/20 00:48:11;;;;;;;0.00;0.00;;;5.10;100.00;;;;;;5043223;28;20319;-72
2023/03/20 00:50:38;;;;;;;0.00;0.00;;;5.10;100.00;;;;;;5030054;28;20493;-72
2023/03/20 00:53:08;;;;;;;0.00;0.00;;;5.00;100.00;;;;;;5029505;28;20052;-71
2023/03/20 00:55:36;;;;;;;0.00;0.00;;;5.00;100.00;;;;;;5042666;28;20041;-71
2023/03/20 00:58:04;;;;;;;0.00;0.00;;;4.90;100.00;;;;;;5025155;28;20053;-71
2023/03/20 01:00:40;;;;;;;0.00;0.00;;;4.90;100.00;;;;;;5043262;28;20053;-71
2023/03/20 01:03:17;;;;;;;0.00;0.00;;;4.90;100.00;;;;;;5049782;28;20048;-71
2023/03/20 01:05:45;;;;;;;0.00;0.00;;;4.90;100.00;;;;;;5025628;28;20390;-70
2023/03/20 01:08:14;;;;;;;0.00;0.00;;;4.90;100.00;;;;;;5035834;28;20500;-70
2023/03/20 01:10:43;;;;;;;0.00;0.00;;;5.00;100.00;;;;;;5030463;28;20055;-70
2023/03/20 01:13:22;;;;;;;0.00;0.00;;;5.10;100.00;;;;;;5041173;28;20049;-70
2023/03/20 01:15:51;;;;;;;0.00;0.00;;;5.20;100.00;;;;;;5034558;28;20058;-70
2023/03/20 01:18:20;;;;;;;0.00;0.00;;;5.30;100.00;;;;;;5032330;28;20053;-69
2023/03/20 01:20:48;;;;;;;0.00;0.00;;;5.30;100.00;;;;;;5018903;28;20045;-69
2023/03/20 01:23:16;;;;;;;0.00;0.00;;;5.60;100.00;;;;;;5051431;28;20044;-69
2023/03/20 01:25:42;;;;;;;0.00;0.00;;;5.80;100.00;;;;;;5022149;28;20041;-70
2023/03/20 01:28:21;;;;;;;0.00;0.00;;;5.90;100.00;;;;;;5038096;28;20053;-69
2023/03/20 01:30:49;;;;;;;0.00;0.00;;;6.10;100.00;;;;;;5034257;28;20104;-69
2023/03/20 01:33:18;;;;;;;0.00;0.00;;;6.20;100.00;;;;;;5046187;28;20126;-69
2023/03/20 01:35:46;;;;;;;0.00;0.00;;;6.40;100.00;;;;;;5044802;28;20045;-70
2023/03/20 01:38:19;;;;;;;0.00;0.00;;;6.40;100.00;;;;;;5044248;28;20111;-69
2023/03/20 01:40:57;;;;;;;0.00;0.00;;;6.50;100.00;;;;;;5047257;28;20473;-70
2023/03/20 01:43:25;;;;;;;0.00;0.00;;;6.60;100.00;;;;;;5045924;28;20246;-70
2023/03/20 01:46:10;;;;;;;0.00;0.00;;;6.60;100.00;;;;;;5045118;28;20110;-69
2023/03/20 01:48:49;;;;;;;0.00;0.00;;;6.60;100.00;;;;;;5043995;28;20468;-70
2023/03/20 01:51:17;;;;;;;0.00;0.00;;;6.70;100.00;;;;;;5035775;28;20045;-70
2023/03/20 01:53:47;;;;;;;0.00;0.00;;;6.70;100.00;;;;;;5027154;28;20148;-70
2023/03/20 01:56:15;;;;;;;0.00;0.00;;;6.80;100.00;;;;;;5035244;28;20059;-70
2023/03/20 01:58:47;;;;;;;0.00;0.00;;;6.80;100.00;;;;;;5051213;28;20428;-69
2023/03/20 02:01:14;;;;;;;0.00;0.00;;;6.80;100.00;;;;;;5021672;28;20049;-70
2023/03/20 02:03:46;;;;;;;0.00;0.00;;;6.90;100.00;;;;;;5030336;28;20056;-69
2023/03/20 02:06:13;;;;;;;0.00;0.00;;;6.90;100.00;;;;;;5017476;28;20045;-70
2023/03/20 02:08:50;;;;;;;0.00;0.00;;;7.00;100.00;;;;;;5040635;28;20098;-70
2023/03/20 02:11:21;;;;;;;0.00;0.00;;;7.00;100.00;;;;;;5038524;28;20057;-70
2023/03/20 02:13:54;;;;;;;0.00;0.00;;;7.10;100.00;;;;;;5028080;28;20040;-70
2023/03/20 02:16:20;;;;;;;0.00;0.00;;;7.20;100.00;;;;;;5039102;28;20049;-70
2023/03/20 02:18:50;;;;;;;0.00;0.00;;;7.20;100.00;;;;;;5038815;28;20044;-70
2023/03/20 02:22:00;;;;;;;0.00;0.00;;;7.20;100.00;;;;;;5022916;28;20412;-70
2023/03/20 02:25:01;;;;;;;0.57;0.38;;;7.20;100.00;;;;;;5045821;28;20070;-70
2023/03/20 02:27:43;;;;;;;0.00;0.00;;;7.30;100.00;;;;;;5025113;28;20052;-70
2023/03/20 02:30:46;;;;;;;0.00;0.00;;;7.30;100.00;;;;;;5046165;28;20704;-70
2023/03/20 02:33:31;;;;;;;0.00;0.00;;;7.40;100.00;;;;;;5031027;28;20554;-70
2023/03/20 02:36:35;;;;;;;0.00;0.00;;;7.40;100.00;;;;;;5012727;28;20049;-70
2023/03/20 02:39:02;;;;;;;0.00;0.00;;;7.40;100.00;;;;;;5045538;28;20081;-70
2023/03/20 02:41:31;;;;;;;0.00;0.00;;;7.50;100.00;;;;;;5015638;28;20045;-70
2023/03/20 02:44:25;;;;;;;0.00;0.00;;;7.50;100.00;;;;;;5037904;28;20094;-70
2023/03/20 02:47:02;;;;;;;0.00;0.00;;;7.50;100.00;;;;;;5015595;28;20052;-69
2023/03/20 02:49:49;;;;;;;0.00;0.00;;;7.60;100.00;;;;;;5030251;28;20053;-69
2023/03/20 02:52:37;;;;;;;0.00;0.00;;;7.50;100.00;;;;;;5024463;28;20055;-69
2023/03/20 02:55:29;;;;;;;0.00;0.00;;;7.50;100.00;;;;;;5038282;28;20465;-69
2023/03/20 02:58:12;;;;;;;0.00;0.00;;;7.50;100.00;;;;;;5038726;28;20551;-70
2023/03/20 03:01:13;;;;;;;0.00;0.00;;;7.50;100.00;;;;;;5044450;28;20379;-69
2023/03/20 03:04:11;;;;;;;0.00;0.00;;;7.50;100.00;;;;;;5044845;28;20049;-70
2023/03/20 03:06:42;;;;;;;0.00;0.00;;;7.50;100.00;;;;;;5034729;28;20463;-70
2023/03/20 03:09:14;;;;;;;0.00;0.00;;;7.50;100.00;;;;;;5043019;28;20814;-70
2023/03/20 03:11:58;;;;;;;0.00;0.00;;;7.50;100.00;;;;;;5028816;28;20132;-70
2023/03/20 03:14:44;;;;;;;0.00;0.00;;;7.50;100.00;;;;;;5020654;28;20430;-69
2023/03/20 03:17:14;;;;;;;0.00;0.00;;;7.50;100.00;;;;;;5042780;28;20044;-69
2023/03/20 03:19:46;;;;;;;0.00;0.00;;;7.50;100.00;;;;;;5021422;28;20079;-69
2023/03/20 03:22:15;;;;;;;0.00;0.00;;;7.50;100.00;;;;;;5034148;28;20049;-70
2023/03/20 03:24:45;;;;;;;0.00;0.00;;;7.50;100.00;;;;;;5045919;28;20413;-70
2023/03/20 03:27:16;;;;;;;0.00;0.00;;;7.50;100.00;;;;;;5025388;28;20284;-70
2023/03/20 03:29:48;;;;;;;0.00;0.00;;;7.50;100.00;;;;;;5026462;28;20497;-70
2023/03/20 03:32:28;;;;;;;0.00;0.00;;;7.50;100.00;;;;;;5040493;28;20041;-70
2023/03/20 03:34:56;;;;;;;0.00;0.00;;;7.50;100.00;;;;;;5014761;28;20079;-69
2023/03/20 03:37:33;;;;;;;0.00;0.00;;;7.40;100.00;;;;;;5019396;28;20056;-69
2023/03/20 03:40:18;;;;;;;0.00;0.00;;;7.50;100.00;;;;;;5029563;28;20045;-69
2023/03/20 03:43:13;;;;;;;0.00;0.00;;;7.40;100.00;;;;;;5039414;28;20538;-69
2023/03/20 03:45:48;;;;;;;0.00;0.00;;;7.40;100.00;;;;;;5042987;28;20048;-69
2023/03/20 03:48:26;;;;;;;0.00;0.00;;;7.40;100.00;;;;;;5023453;28;20044;-70
2023/03/20 03:50:56;;;;;;;0.00;0.00;;;7.50;100.00;;;;;;5011983;28;20812;-70
2023/03/20 03:53:29;;;;;;;0.20;0.20;;;7.40;100.00;;;;;;5043156;28;20052;-70
2023/03/20 03:56:01;;;;;;;0.00;0.00;;;7.40;100.00;;;;;;5030821;28;20632;-70
2023/03/20 03:58:30;;;;;;;0.20;0.20;;;7.40;100.00;;;;;;5035264;28;20072;-70
2023/03/20 04:00:59;;;;;;;0.00;0.00;;;7.40;100.00;;;;;;5033886;28;20124;-70
2023/03/20 04:03:35;;;;;;;0.00;0.00;;;7.30;100.00;;;;;;5047663;28;20049;-70
2023/03/20 04:06:05;;;;;;;0.00;0.00;;;7.30;100.00;;;;;;5034837;28;20139;-70
2023/03/20 04:08:33;;;;;;;0.00;0.00;;;7.30;100.00;;;;;;5032500;28;20663;-70
2023/03/20 04:11:00;;;;;;;0.00;0.00;;;7.30;100.00;;;;;;5031766;28;20288;-69
2023/03/20 04:13:27;;;;;;;0.00;0.00;;;7.30;100.00;;;;;;5044097;28;20749;-69
2023/03/20 04:15:54;;;;;;;0.00;0.00;;;7.30;100.00;;;;;;5043684;28;20051;-69
2023/03/20 04:18:21;;;;;;;0.00;0.00;;;7.30;100.00;;;;;;5040930;28;20053;-70
2023/03/20 04:20:48;;;;;;;0.00;0.00;;;7.30;100.00;;;;;;5039863;28;20048;-69
2023/03/20 04:23:15;;;;;;;0.00;0.00;;;7.30;100.00;;;;;;5026049;28;20053;-69
2023/03/20 04:25:42;;;;;;;0.00;0.00;;;7.30;100.00;;;;;;5036817;28;20044;-69
2023/03/20 04:28:10;;;;;;;0.00;0.00;;;7.30;100.00;;;;;;5039439;28;20060;-69
2023/03/20 04:30:37;;;;;;;0.00;0.00;;;7.30;100.00;;;;;;5046922;28;20401;-69
2023/03/20 04:33:04;;;;;;;0.00;0.00;;;7.30;100.00;;;;;;5028089;28;20597;-69
2023/03/20 04:35:31;;;;;;;0.20;0.20;;;7.30;100.00;;;;;;5035133;28;20477;-69
2023/03/20 04:37:57;;;;;;;0.00;0.00;;;7.30;100.00;;;;;;5024158;28;20041;-70
2023/03/20 04:40:25;;;;;;;0.00;0.00;;;7.30;100.00;;;;;;5034430;28;20053;-69
2023/03/20 04:42:52;;;;;;;0.00;0.00;;;7.30;100.00;;;;;;5025151;28;20052;-70
2023/03/20 04:45:19;;;;;;;0.00;0.00;;;7.30;100.00;;;;;;5045223;28;20133;-70
2023/03/20 04:47:46;;;;;;;0.00;0.00;;;7.30;100.00;;;;;;5042767;28;20468;-69
2023/03/20 04:50:13;;;;;;;0.00;0.00;;;7.30;100.00;;;;;;5042895;28;20045;-69
2023/03/20 04:52:40;;;;;;;0.00;0.00;;;7.30;100.00;;;;;;5027973;28;20047;-69
2023/03/20 04:55:07;;;;;;;0.00;0.00;;;7.30;100.00;;;;;;5032371;28;20049;-69
2023/03/20 04:57:33;;;;;;;0.00;0.00;;;7.30;100.00;;;;;;5022493;28;20054;-70
2023/03/20 05:00:00;;;;;;;0.00;0.00;;;7.30;100.00;;;;;;5023624;28;20767;-69
2023/03/20 05:02:27;;;;;;;0.00;0.00;;;7.30;100.00;;;;;;5028956;28;20060;-69
2023/03/20 05:04:54;;;;;;;0.00;0.00;;;7.30;100.00;;;;;;5037093;28;20053;-69
2023/03/20 05:07:21;;;;;;;0.00;0.00;;;7.30;100.00;;;;;;5025277;28;20057;-69
2023/03/20 05:09:48;;;;;;;0.00;0.00;;;7.30;100.00;;;;;;5039201;28;20045;-69
2023/03/20 05:12:15;;;;;;;0.00;0.00;;;7.30;100.00;;;;;;5039950;28;20047;-69
2023/03/20 05:14:42;;;;;;;0.00;0.00;;;7.30;100.00;;;;;;5030164;28;20049;-70
2023/03/20 05:17:08;;;;;;;0.00;0.00;;;7.30;100.00;;;;;;5025999;28;20450;-70
2023/03/20 05:19:35;;;;;;;0.00;0.00;;;7.30;100.00;;;;;;5042546;28;20055;-69
2023/03/20 05:22:02;;;;;;;0.00;0.00;;;7.20;100.00;;;;;;5039016;28;20466;-69
2023/03/20 05:24:30;;;;;;;0.00;0.00;;;7.20;100.00;;;;;;5040645;28;20055;-69
2023/03/20 05:26:57;;;;;;;0.00;0.00;;;7.20;100.00;;;;;;5036224;28;20049;-69
2023/03/20 05:29:23;;;;;;;0.00;0.00;;;7.20;100.00;;;;;;5037141;28;20068;-69
2023/03/20 05:31:50;;;;;;;0.00;0.00;;;7.20;100.00;;;;;;5040046;28;20041;-69
2023/03/20 05:34:17;;;;;;;0.00;0.00;;;7.20;100.00;;;;;;5038591;28;20076;-70
2023/03/20 05:36:44;;;;;;;0.00;0.00;;;7.20;100.00;;;;;;5039983;28;20416;-69
2023/03/20 05:39:11;;;;;;;0.00;0.00;;;7.20;100.00;;;;;;5034110;28;20049;-69
2023/03/20 05:41:38;;;;;;;0.00;0.00;;;7.20;100.00;;;;;;5032705;28;20099;-69
2023/03/20 05:44:05;;;;;;;0.00;0.00;;;7.20;100.00;;;;;;5038513;28;20056;-69
2023/03/20 05:46:32;;;;;;;0.00;0.00;;;7.30;100.00;;;;;;5043631;28;20268;-69
2023/03/20 05:48:59;;;;;;;0.00;0.00;;;7.30;100.00;;;;;;5045245;28;20111;-69
2023/03/20 05:51:26;;;;;;;0.00;0.00;;;7.30;100.00;;;;;;5014003;28;20132;-69
2023/03/20 05:53:53;;;;;;;0.00;0.00;;;7.30;100.00;;;;;;5036024;28;20045;-69
2023/03/20 05:56:20;;;;;;;0.00;0.00;;;7.30;100.00;;;;;;5028741;28;20049;-70
2023/03/20 05:58:47;;;;;;;0.00;0.00;;;7.30;100.00;;;;;;5029073;28;20047;-69
2023/03/20 06:01:17;;;;;;;0.00;0.00;;;7.30;100.00;;;;;;5038888;28;20485;-69
2023/03/20 06:03:44;;;;;;;0.00;0.00;;;7.30;100.00;;;;;;5036086;28;20056;-69
2023/03/20 06:06:10;;;;;;;0.00;0.00;;;7.30;100.00;;;;;;5037111;28;20076;-70
2023/03/20 06:08:37;;;;;;;0.00;0.00;;;7.40;100.00;;;;;;5041724;28;20054;-70
2023/03/20 06:11:04;;;;;;;0.00;0.00;;;7.40;100.00;;;;;;5040673;28;20418;-70
2023/03/20 06:13:31;;;;;;;0.00;0.00;;;7.40;100.00;;;;;;5048777;28;20049;-70
2023/03/20 06:15:58;;;;;;;0.00;0.00;;;7.40;100.00;;;;;;5043553;28;20557;-71
2023/03/20 06:18:25;;;;;;;0.00;0.00;;;7.40;100.00;;;;;;5046395;28;20783;-73
2023/03/20 06:20:53;;;;;;;0.00;0.00;;;7.50;100.00;;;;;;5043712;28;20488;-71
2023/03/20 06:23:21;;;;;;;0.00;0.00;;;7.50;100.00;;;;;;5048470;28;20155;-71
2023/03/20 06:25:48;;;;;;;0.00;0.00;;;7.50;100.00;;;;;;5039892;28;20041;-70
2023/03/20 06:28:15;;;;;;;0.00;0.00;;;7.60;100.00;;;;;;5046329;28;20085;-75
2023/03/20 06:30:43;;;;;;;0.00;0.00;;;7.60;100.00;;;;;;5043936;28;20401;-70
2023/03/20 06:33:10;;;;;;;0.00;0.00;;;7.60;100.00;;;;;;5040632;28;20528;-70
2023/03/20 06:35:36;;;;;;;0.00;0.00;;;7.60;100.00;;;;;;5034980;28;20812;-72
2023/03/20 06:38:04;;;;;;;0.00;0.00;;;7.60;100.00;;;;;;5039362;28;20720;-70
2023/03/20 06:40:31;;;;;;;0.00;0.00;;;7.60;100.00;;;;;;5028408;28;20049;-71
2023/03/20 06:42:58;;;;;;;0.00;0.00;;;7.70;100.00;;;;;;5043080;28;20914;-71
2023/03/20 06:45:25;;;;;;;0.00;0.00;;;7.70;100.00;;;;;;5046442;28;20044;-71
2023/03/20 06:47:51;;;;;;;0.00;0.00;;;7.70;100.00;;;;;;5045181;28;20064;-71
2023/03/20 06:50:18;;;;;;;0.00;0.00;;;7.70;100.00;;;;;;5044780;28;20410;-70
2023/03/20 06:52:45;;;;;;;0.00;0.00;;;7.80;100.00;;;;;;5028785;28;20049;-71
2023/03/20 06:55:12;;;;;;;0.00;0.00;;;7.70;100.00;;;;;;5042146;28;20049;-71
2023/03/20 06:57:39;;;;;;;0.00;0.00;;;7.80;100.00;;;;;;5043127;28;20444;-71
2023/03/20 07:00:07;;;;;;;0.00;0.00;;;7.70;100.00;;;;;;5047998;28;20051;-71
2023/03/20 07:02:33;;;;;;;0.00;0.00;;;7.80;100.00;;;;;;5041616;28;20553;-71
2023/03/20 07:05:01;;;;;;;0.00;0.00;;;7.80;100.00;;;;;;5041711;28;20055;-71
2023/03/20 07:07:28;;;;;;;0.00;0.00;;;7.70;100.00;;;;;;5038701;28;20509;-71
2023/03/20 07:09:55;;;;;;;0.00;0.00;;;7.70;100.00;;;;;;5019623;28;21230;-71
2023/03/20 07:12:27;;;;;;;0.00;0.00;;;7.80;100.00;;;;;;5049303;28;20055;-71
2023/03/20 07:14:54;;;;;;;0.00;0.00;;;7.80;100.00;;;;;;5028523;28;20052;-71
2023/03/20 07:17:22;;;;;;;0.00;0.00;;;7.90;100.00;;;;;;5039188;28;20058;-71
2023/03/20 07:19:49;;;;;;;0.00;0.00;;;7.90;100.00;;;;;;5042854;28;20041;-71
2023/03/20 07:22:27;;;;;;;0.00;0.00;;;8.00;100.00;;;;;;5035523;28;20052;-71
2023/03/20 07:24:54;;;;;;;0.00;0.00;;;8.10;100.00;;;;;;5035576;28;20075;-71
2023/03/20 07:27:21;;;;;;;0.00;0.00;;;8.20;100.00;;;;;;5042885;28;20117;-71
2023/03/20 07:29:48;;;;;;;0.00;0.00;;;8.20;100.00;;;;;;5044358;28;20052;-71
2023/03/20 07:32:15;;;;;;;0.00;0.00;;;8.20;100.00;;;;;;5029777;28;20841;-71
2023/03/20 07:34:42;;;;;;;0.00;0.00;;;8.20;99.90;;;;;;5046333;28;20497;-71
2023/03/20 07:37:10;;;;;;;0.00;0.00;;;8.10;100.00;;;;;;5034718;28;20047;-71
2023/03/20 07:39:36;;;;;;;0.00;0.00;;;8.10;100.00;;;;;;5031624;28;20052;-71
2023/03/20 07:42:03;;;;;;;0.00;0.00;;;8.10;99.50;;;;;;5038786;28;20461;-71
2023/03/20 07:44:30;;;;;;;0.00;0.00;;;8.20;100.00;;;;;;5046394;28;20063;-71
2023/03/20 07:46:57;;;;;;;0.00;0.00;;;8.20;100.00;;;;;;5022943;28;20107;-71
2023/03/20 07:49:25;;;;;;;0.00;0.00;;;8.20;100.00;;;;;;5050635;28;20059;-71
2023/03/20 07:51:53;;;;;;;0.00;0.00;;;8.30;98.80;;;;;;5026798;28;20045;-71
2023/03/20 07:54:20;;;;;;;0.00;0.00;;;8.40;99.90;;;;;;5043017;28;20059;-71
2023/03/20 07:56:47;;;;;;;0.00;0.00;;;8.30;98.60;;;;;;5047313;28;20585;-71
2023/03/20 07:59:14;;;;;;;0.00;0.00;;;8.40;98.80;;;;;;5046625;28;20045;-71
2023/03/20 08:01:41;;;;;;;0.00;0.00;;;8.30;97.50;;;;;;5023957;28;20367;-71
2023/03/20 08:04:08;;;;;;;0.00;0.00;;;8.40;98.70;;;;;;5022082;28;20136;-71
2023/03/20 08:06:35;;;;;;;0.00;0.00;;;8.50;98.60;;;;;;5038359;28;20107;-71
2023/03/20 08:09:02;;;;;;;0.00;0.00;;;8.50;98.60;;;;;;5047546;28;20056;-71
2023/03/20 08:11:29;;;;;;;0.00;0.00;;;8.50;98.20;;;;;;5039283;28;20053;-71
2023/03/20 08:13:59;;;;;;;0.00;0.00;;;8.50;97.60;;;;;;5021014;28;20080;-71
2023/03/20 08:16:26;;;;;;;0.00;0.00;;;8.60;97.70;;;;;;5028598;28;20049;-71
2023/03/20 08:18:57;;;;;;;0.00;0.00;;;8.60;98.20;;;;;;5053197;28;20052;-71
2023/03/20 08:21:24;;;;;;;0.00;0.00;;;8.60;96.30;;;;;;5043768;28;20049;-70
2023/03/20 08:23:51;;;;;;;0.00;0.00;;;8.60;96.90;;;;;;5040568;28;20049;-71
2023/03/20 08:26:17;;;;;;;0.00;0.00;;;8.60;97.20;;;;;;5037185;28;20559;-71
2023/03/20 08:28:44;;;;;;;0.00;0.00;;;8.50;96.70;;;;;;5054829;28;20075;-71
2023/03/20 08:31:16;;;;;;;0.00;0.00;;;8.50;96.00;;;;;;5025569;28;20132;-71
2023/03/20 08:33:44;;;;;;;0.00;0.00;;;8.50;97.30;;;;;;5044428;28;20444;-71
2023/03/20 08:36:14;;;;;;;0.00;0.00;;;8.40;97.10;;;;;;5036783;28;20053;-71
2023/03/20 08:38:42;;;;;;;0.00;0.00;;;8.30;96.30;;;;;;5043188;28;20475;-71
2023/03/20 08:41:09;;;;;;;0.00;0.00;;;8.30;96.50;;;;;;5022656;28;20304;-71
2023/03/20 08:43:35;;;;;;;0.00;0.00;;;8.20;96.50;;;;;;5047184;28;20041;-71
2023/03/20 08:46:03;;;;;;;0.00;0.00;;;8.20;97.60;;;;;;5031773;28;20052;-71
2023/03/20 08:48:30;;;;;;;0.00;0.00;;;8.20;97.70;;;;;;5033971;28;20082;-71
2023/03/20 08:50:57;;;;;;;0.00;0.00;;;8.10;97.00;;;;;;5030340;28;20049;-71
2023/03/20 08:53:24;;;;;;;0.00;0.00;;;8.10;98.20;;;;;;5042535;28;20052;-71
2023/03/20 08:55:51;;;;;;;0.00;0.00;;;8.10;97.70;;;;;;5048074;28;20052;-71
2023/03/20 08:58:19;;;;;;;0.00;0.00;;;8.10;98.30;;;;;;5044320;28;20500;-71
2023/03/20 09:00:46;;;;;;;0.00;0.00;;;8.10;98.80;;;;;;5051292;28;20060;-71
2023/03/20 09:03:14;;;;;;;0.00;0.00;;;8.10;99.30;;;;;;5049778;28;20045;-71
2023/03/20 09:05:43;;;;;;;0.00;0.00;;;8.20;98.60;;;;;;5046753;28;20053;-71
2023/03/20 09:08:10;;;;;;;0.00;0.00;;;8.20;98.10;;;;;;5051122;28;20069;-71
2023/03/20 09:10:37;;;;;;;0.00;0.00;;;8.30;98.20;;;;;;5042502;28;20419;-71
2023/03/20 09:13:04;;;;;;;0.00;0.00;;;8.30;97.60;;;;;;5030845;28;20441;-71
2023/03/20 09:15:51;;;;;;;0.00;0.00;;;8.40;97.80;;;;;;5042885;28;20148;-71
2023/03/20 09:18:20;;;;;;;0.00;0.00;;;8.30;97.60;;;;;;5050453;28;20143;-71
2023/03/20 09:20:47;;;;;;;0.00;0.00;;;8.30;96.50;;;;;;5048228;28;20078;-71
2023/03/20 09:23:15;;;;;;;0.00;0.00;;;8.30;97.30;;;;;;5035698;28;20152;-71
2023/03/20 09:25:42;;;;;;;0.00;0.00;;;8.40;98.10;;;;;;5042884;28;20049;-71
2023/03/20 09:28:09;;;;;;;0.00;0.00;;;8.40;97.80;;;;;;5024668;28;20053;-71
2023/03/20 09:30:36;;;;;;;0.00;0.00;;;8.50;96.80;;;;;;5026176;28;20429;-71
2023/03/20 09:33:04;;;;;;;0.00;0.00;;;8.50;96.70;;;;;;5025203;28;20081;-71
2023/03/20 09:35:31;;;;;;;0.00;0.00;;;8.50;96.30;;;;;;5034557;28;20373;-71
2023/03/20 09:37:58;;;;;;;0.00;0.00;;;8.60;95.40;;;;;;5045362;28;20133;-71
2023/03/20 09:40:27;;;;;;;0.00;0.00;;;8.60;95.80;;;;;;5029071;28;20390;-71
2023/03/20 09:43:13;;;;;;;0.00;0.00;;;8.70;96.50;;;;;;5052467;28;20052;-71
2023/03/20 09:45:58;;;;;;;0.00;0.00;;;8.90;96.60;;;;;;5048810;28;20053;-71
2023/03/20 09:48:40;;;;;;;0.00;0.00;;;8.90;94.60;;;;;;5049114;28;20053;-71
2023/03/20 09:51:06;;;;;;;0.00;0.00;;;8.90;94.80;;;;;;5040965;28;20055;-71
2023/03/20 09:53:52;;;;;;;0.00;0.00;;;8.80;93.70;;;;;;5049960;28;20466;-71
2023/03/20 09:56:24;;;;;;;0.00;0.00;;;8.80;93.70;;;;;;5046497;28;20052;-71
2023/03/20 09:58:55;;;;;;;0.00;0.00;;;8.70;93.50;;;;;;5041181;28;20523;-71
2023/03/20 10:01:26;;;;;;;0.00;0.00;;;8.80;94.70;;;;;;5041514;28;20044;-71
2023/03/20 10:03:56;;;;;;;0.00;0.00;;;8.80;94.40;;;;;;5030252;28;20067;-71
2023/03/20 10:06:24;;;;;;;0.00;0.00;;;8.80;93.40;;;;;;5041319;28;20390;-71
2023/03/20 10:08:51;;;;;;;0.00;0.00;;;8.80;93.00;;;;;;5047590;28;20045;-71
2023/03/20 10:11:26;;;;;;;0.00;0.00;;;8.80;92.20;;;;;;5038894;28;20060;-71
2023/03/20 10:14:05;;;;;;;0.00;0.00;;;8.80;92.90;;;;;;5026688;28;20056;-71
2023/03/20 10:16:46;;;;;;;0.00;0.00;;;8.80;91.90;;;;;;5035855;28;20512;-71
2023/03/20 10:19:57;;;;;;;0.00;0.00;;;8.80;93.00;;;;;;5038978;28;20118;-71
2023/03/20 10:22:37;;;;;;;0.00;0.00;;;9.00;91.30;;;;;;5041142;28;20083;-71
2023/03/20 10:25:22;;;;;;;0.00;0.00;;;9.00;90.90;;;;;;5044892;28;20064;-71
2023/03/20 10:27:56;;;;;;;0.00;0.00;;;9.00;90.90;;;;;;5024514;28;20371;-71
2023/03/20 10:30:42;;;;;;;0.00;0.00;;;9.00;92.20;;;;;;5030736;28;20073;-71
2023/03/20 10:33:25;;;;;;;0.00;0.00;;;9.00;91.60;;;;;;5049772;28;20047;-71
2023/03/20 10:36:11;;;;;;;0.00;0.00;;;9.00;91.40;;;;;;5028086;28;20466;-71
2023/03/20 10:38:47;;;;;;;0.00;0.00;;;8.90;92.60;;;;;;5029693;28;20037;-71
2023/03/20 10:41:18;;;;;;;0.00;0.00;;;8.90;92.10;;;;;;5042270;28;20041;-71
2023/03/20 10:43:48;;;;;;;0.00;0.00;;;9.00;91.70;;;;;;5054514;28;20048;-71
2023/03/20 10:46:31;;;;;;;0.00;0.00;;;9.10;92.40;;;;;;5047305;28;20387;-71
2023/03/20 10:49:13;;;;;;;0.00;0.00;;;9.10;91.70;;;;;;5048960;28;20052;-71
2023/03/20 10:51:47;;;;;;;0.00;0.00;;;9.20;91.10;;;;;;5025307;28;20091;-71
2023/03/20 10:54:39;;;;;;;0.00;0.00;;;9.10;90.60;;;;;;5034611;28;20044;-71
2023/03/20 10:57:17;;;;;;;0.00;0.00;;;9.00;90.50;;;;;;5021317;28;20050;-71
2023/03/20 10:59:48;;;;;;;0.00;0.00;;;9.10;91.20;;;;;;5050567;28;20060;-71
2023/03/20 11:02:17;;;;;;;0.00;0.00;;;9.10;91.40;;;;;;5038373;28;20563;-71
2023/03/20 11:04:44;;;;;;;0.00;0.00;;;9.20;90.50;;;;;;5042624;28;20144;-71
2023/03/20 11:07:11;;;;;;;0.00;0.00;;;9.10;89.90;;;;;;5043063;28;20048;-71
2023/03/20 11:09:38;;;;;;;0.00;0.00;;;9.20;90.80;;;;;;5042471;28;20052;-71
2023/03/20 11:12:05;;;;;;;0.00;0.00;;;9.20;90.00;;;;;;5023075;28;20049;-71
2023/03/20 11:14:36;;;;;;;0.00;0.00;;;9.30;90.30;;;;;;5021267;28;20508;-71
2023/03/20 11:17:05;;;;;;;0.00;0.00;;;9.30;89.70;;;;;;5027303;28;20045;-71
2023/03/20 11:19:34;;;;;;;0.00;0.00;;;9.30;89.40;;;;;;5044663;28;20040;-71
2023/03/20 11:22:08;;;;;;;0.00;0.00;;;9.30;88.30;;;;;;5031897;28;20444;-71
2023/03/20 11:24:37;;;;;;;0.00;0.00;;;9.30;89.30;;;;;;5042680;28;20049;-71
2023/03/20 11:27:28;;;;;;;0.00;0.00;;;9.30;88.50;;;;;;5023713;28;20056;-71
2023/03/20 11:29:56;;;;;;;0.00;0.00;;;9.30;88.10;;;;;;5021482;28;20052;-71
2023/03/20 11:32:53;;;;;;;0.00;0.00;;;9.40;88.30;;;;;;5038686;28;20814;-71
2023/03/20 11:35:29;;;;;;;0.00;0.00;;;9.40;88.60;;;;;;5045467;28;20127;-71
2023/03/20 11:38:14;;;;;;;0.00;0.00;;;9.50;87.50;;;;;;5040723;28;20048;-71
2023/03/20 11:40:41;;;;;;;0.00;0.00;;;9.60;89.50;;;;;;5042160;28;20044;-71
2023/03/20 11:43:19;;;;;;;0.00;0.00;;;9.70;87.00;;;;;;5044550;28;20071;-71
2023/03/20 11:45:58;;;;;;;0.00;0.00;;;9.80;87.00;;;;;;5038299;28;20060;-71
2023/03/20 11:48:45;;;;;;;0.00;0.00;;;10.00;87.70;;;;;;5046393;28;20056;-71
2023/03/20 11:51:21;;;;;;;0.00;0.00;;;10.20;87.40;;;;;;5027980;28;20128;-71
2023/03/20 11:53:48;;;;;;;0.00;0.00;;;10.30;86.00;;;;;;4952280;28;53840;-71
2023/03/20 11:56:25;;;;;;;0.00;0.00;;;10.50;86.40;;;;;;5026417;28;20048;-71
2023/03/20 11:59:13;;;;;;;0.00;0.00;;;10.70;86.00;;;;;;5030886;28;20053;-71
2023/03/20 12:01:45;;;;;;;0.00;0.00;;;10.80;84.50;;;;;;5015580;28;20056;-71
2023/03/20 12:04:17;;;;;;;0.00;0.00;;;10.70;82.90;;;;;;5024493;28;20055;-71
2023/03/20 12:06:52;;;;;;;0.00;0.00;;;10.60;85.20;;;;;;5022546;28;20092;-71
2023/03/20 12:09:37;;;;;;;0.00;0.00;;;10.70;83.70;;;;;;5024853;28;20057;-71
2023/03/20 12:12:10;;;;;;;0.00;0.00;;;10.90;85.70;;;;;;5019054;28;20501;-71
2023/03/20 12:15:07;;;;;;;0.00;0.00;;;10.90;83.20;;;;;;5027878;28;20053;-71
2023/03/20 12:17:34;;;;;;;0.00;0.00;;;10.80;84.20;;;;;;4992588;28;20049;-71
2023/03/20 12:20:26;;;;;;;0.00;0.00;;;10.70;83.40;;;;;;5020764;28;20053;-71
2023/03/20 12:23:14;;;;;;;0.00;0.00;;;10.60;84.00;;;;;;5023101;28;20474;-71
2023/03/20 12:25:53;;;;;;;0.00;0.00;;;10.30;81.90;;;;;;5020642;28;20052;-71
2023/03/20 12:28:43;;;;;;;0.00;0.00;;;10.00;84.20;;;;;;5032856;28;20052;-71
2023/03/20 12:31:21;;;;;;;0.00;0.00;;;9.80;84.40;;;;;;5018081;28;20071;-71
2023/03/20 12:34:10;;;;;;;0.00;0.00;;;9.70;83.80;;;;;;5024829;28;20052;-71
2023/03/20 12:36:46;;;;;;;0.00;0.00;;;9.50;85.80;;;;;;5015338;28;20049;-71
2023/03/20 12:39:15;;;;;;;0.00;0.00;;;9.40;87.50;;;;;;5032520;28;20076;-71
2023/03/20 12:42:08;;;;;;;0.00;0.00;;;9.20;90.10;;;;;;5019173;28;20045;-71
2023/03/20 12:44:49;;;;;;;0.00;0.00;;;9.10;91.70;;;;;;5030663;28;20123;-71
2023/03/20 12:47:38;;;;;;;0.00;0.00;;;8.90;92.80;;;;;;5035563;28;20183;-71
2023/03/20 12:50:05;;;;;;;0.00;0.00;;;8.90;94.90;;;;;;5032382;28;20052;-71
2023/03/20 12:52:58;;;;;;;0.00;0.00;;;8.90;94.80;;;;;;5024213;28;20533;-71
2023/03/20 12:55:36;;;;;;;0.00;0.00;;;9.00;95.60;;;;;;5028835;28;20046;-71
2023/03/20 12:58:55;;;;;;;0.00;0.00;;;9.20;96.50;;;;;;5033464;28;20114;-71
2023/03/20 13:01:39;;;;;;;0.00;0.00;;;9.40;94.40;;;;;;4984658;28;20049;-71
2023/03/20 13:04:17;;;;;;;0.00;0.00;;;9.70;94.60;;;;;;5033742;28;20106;-71
2023/03/20 13:07:01;;;;;;;0.00;0.00;;;9.90;94.40;;;;;;5018708;28;20053;-71
2023/03/20 13:09:34;;;;;;;0.00;0.00;;;9.90;93.40;;;;;;5024207;28;20049;-71
2023/03/20 13:12:06;;;;;;;0.00;0.00;;;9.80;91.50;;;;;;5024412;28;20049;-71
2023/03/20 13:14:33;;;;;;;0.00;0.00;;;9.90;91.40;;;;;;5020527;28;20414;-71
2023/03/20 13:17:25;;;;;;;0.00;0.00;;;9.90;91.60;;;;;;5027164;28;20049;-71